sensor_id;sensor_type;location;lat;lon;timestamp;temperature;humidity
40600;DHT22;26309;50.924;4.754;2022-11-20T00:01:19;5.30;99.90
40600;DHT22;26309;50.924;4.754;2022-11-20T00:03:46;5.20;99.90
40600;DHT22;26309;50.924;4.754;2022-11-20T00:06:15;5.30;99.90
40600;DHT22;26309;50.924;4.754;2022-11-20T00:08:45;5.30;99.90
40600;DHT22;26309;50.924;4.754;2022-11-20T00:11:14;5.20;99.90
40600;DHT22;26309;50.924;4.754;2022-11-20T00:13:40;5.10;99.90
40600;DHT22;26309;50.924;4.754;2022-11-20T00:16:08;5.20;99.90
40600;DHT22;26309;50.924;4.754;2022-11-20T00:18:35;5.20;99.90
40600;DHT22;26309;50.924;4.754;2022-11-20T00:21:06;5.20;99.90
40600;DHT22;26309;50.924;4.754;2022-11-20T00:23:32;5.20;99.90
40600;DHT22;26309;50.924;4.754;2022-11-20T00:26:03;5.20;99.90
40600;DHT22;26309;50.924;4.754;2022-11-20T00:28:30;5.20;99.90
40600;DHT22;26309;50.924;4.754;2022-11-20T00:31:11;5.40;99.90
40600;DHT22;26309;50.924;4.754;2022-11-20T00:33:38;5.50;99.90
40600;DHT22;26309;50.924;4.754;2022-11-20T00:36:10;5.40;99.90
40600;DHT22;26309;50.924;4.754;2022-11-20T00:38:43;5.30;99.90
40600;DHT22;26309;50.924;4.754;2022-11-20T00:41:12;5.40;99.90
40600;DHT22;26309;50.924;4.754;2022-11-20T00:43:38;5.40;99.90
40600;DHT22;26309;50.924;4.754;2022-11-20T00:46:18;5.20;99.90
40600;DHT22;26309;50.924;4.754;2022-11-20T00:48:45;4.80;99.90
40600;DHT22;26309;50.924;4.754;2022-11-20T00:51:13;4.70;99.90
40600;DHT22;26309;50.924;4.754;2022-11-20T00:53:40;4.60;99.90
40600;DHT22;26309;50.924;4.754;2022-11-20T00:56:10;4.70;99.90
40600;DHT22;26309;50.924;4.754;2022-11-20T00:58:38;4.80;99.90
40600;DHT22;26309;50.924;4.754;2022-11-20T01:01:13;4.90;99.90
40600;DHT22;26309;50.924;4.754;2022-11-20T01:03:42;5.10;99.90
40600;DHT22;26309;50.924;4.754;2022-11-20T01:06:19;5.10;99.90
40600;DHT22;26309;50.924;4.754;2022-11-20T01:08:46;5.20;99.90
40600;DHT22;26309;50.924;4.754;2022-11-20T01:11:15;5.20;99.90
40600;DHT22;26309;50.924;4.754;2022-11-20T01:13:43;5.30;99.90
40600;DHT22;26309;50.924;4.754;2022-11-20T01:18:42;5.40;99.90
40600;DHT22;26309;50.924;4.754;2022-11-20T01:21:16;5.40;99.90
40600;DHT22;26309;50.924;4.754;2022-11-20T01:23:43;5.40;99.90
40600;DHT22;26309;50.924;4.754;2022-11-20T01:26:13;5.40;99.90
40600;DHT22;26309;50.924;4.754;2022-11-20T01:28:40;5.40;99.90
40600;DHT22;26309;50.924;4.754;2022-11-20T01:31:17;5.50;99.90
40600;DHT22;26309;50.924;4.754;2022-11-20T01:33:45;5.60;99.90
40600;DHT22;26309;50.924;4.754;2022-11-20T01:38:46;5.30;99.90
40600;DHT22;26309;50.924;4.754;2022-11-20T01:41:14;5.40;99.90
40600;DHT22;26309;50.924;4.754;2022-11-20T01:44:00;5.30;99.90
40600;DHT22;26309;50.924;4.754;2022-11-20T01:46:27;5.30;99.90
40600;DHT22;26309;50.924;4.754;2022-11-20T01:49:16;5.40;99.90
40600;DHT22;26309;50.924;4.754;2022-11-20T01:51:48;5.40;99.90
40600;DHT22;26309;50.924;4.754;2022-11-20T01:54:23;5.40;99.90
40600;DHT22;26309;50.924;4.754;2022-11-20T01:56:53;5.20;99.90
40600;DHT22;26309;50.924;4.754;2022-11-20T01:59:22;5.10;99.90
40600;DHT22;26309;50.924;4.754;2022-11-20T02:01:48;5.10;99.90
40600;DHT22;26309;50.924;4.754;2022-11-20T02:04:15;5.00;99.90
40600;DHT22;26309;50.924;4.754;2022-11-20T02:06:49;5.20;99.90
40600;DHT22;26309;50.924;4.754;2022-11-20T02:09:16;5.00;99.90
40600;DHT22;26309;50.924;4.754;2022-11-20T02:11:42;5.10;99.90
40600;DHT22;26309;50.924;4.754;2022-11-20T02:14:08;5.10;99.90
40600;DHT22;26309;50.924;4.754;2022-11-20T02:16:37;5.30;99.90
40600;DHT22;26309;50.924;4.754;2022-11-20T02:19:19;5.30;99.90
40600;DHT22;26309;50.924;4.754;2022-11-20T02:24:20;5.40;99.90
40600;DHT22;26309;50.924;4.754;2022-11-20T02:26:53;5.50;99.90
40600;DHT22;26309;50.924;4.754;2022-11-20T02:32:28;5.70;99.90
40600;DHT22;26309;50.924;4.754;2022-11-20T02:34:54;5.70;99.90
40600;DHT22;26309;50.924;4.754;2022-11-20T02:37:21;5.70;99.90
40600;DHT22;26309;50.924;4.754;2022-11-20T02:39:49;5.50;99.90
40600;DHT22;26309;50.924;4.754;2022-11-20T02:42:15;5.30;99.90
40600;DHT22;26309;50.924;4.754;2022-11-20T02:44:41;5.40;99.90
40600;DHT22;26309;50.924;4.754;2022-11-20T02:47:07;5.50;99.90
40600;DHT22;26309;50.924;4.754;2022-11-20T02:49:33;5.50;99.90
40600;DHT22;26309;50.924;4.754;2022-11-20T02:51:59;5.40;99.90
40600;DHT22;26309;50.924;4.754;2022-11-20T02:54:25;5.20;99.90
40600;DHT22;26309;50.924;4.754;2022-11-20T02:56:51;5.20;99.90
40600;DHT22;26309;50.924;4.754;2022-11-20T02:59:17;5.40;99.90
40600;DHT22;26309;50.924;4.754;2022-11-20T03:01:42;5.30;99.90
40600;DHT22;26309;50.924;4.754;2022-11-20T03:04:08;5.40;99.90
40600;DHT22;26309;50.924;4.754;2022-11-20T03:06:34;5.50;99.90
40600;DHT22;26309;50.924;4.754;2022-11-20T03:09:00;5.50;99.90
40600;DHT22;26309;50.924;4.754;2022-11-20T03:11:26;5.50;99.90
40600;DHT22;26309;50.924;4.754;2022-11-20T03:13:52;5.30;99.90
40600;DHT22;26309;50.924;4.754;2022-11-20T03:16:21;5.20;99.90
40600;DHT22;26309;50.924;4.754;2022-11-20T03:18:47;5.20;99.90
40600;DHT22;26309;50.924;4.754;2022-11-20T03:21:14;5.30;99.90
40600;DHT22;26309;50.924;4.754;2022-11-20T03:23:40;5.30;99.90
40600;DHT22;26309;50.924;4.754;2022-11-20T03:26:12;5.30;99.90
40600;DHT22;26309;50.924;4.754;2022-11-20T03:28:45;5.30;99.90
40600;DHT22;26309;50.924;4.754;2022-11-20T03:31:13;5.30;99.90
40600;DHT22;26309;50.924;4.754;2022-11-20T03:33:40;5.40;99.90
40600;DHT22;26309;50.924;4.754;2022-11-20T03:36:11;5.40;99.90
40600;DHT22;26309;50.924;4.754;2022-11-20T03:38:38;5.40;99.90
40600;DHT22;26309;50.924;4.754;2022-11-20T03:41:06;5.40;99.90
40600;DHT22;26309;50.924;4.754;2022-11-20T03:43:33;5.20;99.90
40600;DHT22;26309;50.924;4.754;2022-11-20T03:45:59;5.10;99.90
40600;DHT22;26309;50.924;4.754;2022-11-20T03:48:25;5.10;99.90
40600;DHT22;26309;50.924;4.754;2022-11-20T03:50:52;4.90;99.90
40600;DHT22;26309;50.924;4.754;2022-11-20T03:53:19;4.80;99.90
40600;DHT22;26309;50.924;4.754;2022-11-20T03:55:50;4.60;99.90
40600;DHT22;26309;50.924;4.754;2022-11-20T03:58:19;4.90;99.90
40600;DHT22;26309;50.924;4.754;2022-11-20T04:00:45;5.00;99.90
40600;DHT22;26309;50.924;4.754;2022-11-20T04:03:11;5.10;99.90
40600;DHT22;26309;50.924;4.754;2022-11-20T04:05:37;5.10;99.90
40600;DHT22;26309;50.924;4.754;2022-11-20T04:08:03;5.20;99.90
40600;DHT22;26309;50.924;4.754;2022-11-20T04:10:29;5.20;99.90
40600;DHT22;26309;50.924;4.754;2022-11-20T04:12:55;5.20;99.90
40600;DHT22;26309;50.924;4.754;2022-11-20T04:15:20;5.30;99.90
40600;DHT22;26309;50.924;4.754;2022-11-20T04:17:46;5.40;99.90
40600;DHT22;26309;50.924;4.754;2022-11-20T04:20:12;5.30;99.90
40600;DHT22;26309;50.924;4.754;2022-11-20T04:22:38;5.30;99.90
40600;DHT22;26309;50.924;4.754;2022-11-20T04:25:04;5.50;99.90
40600;DHT22;26309;50.924;4.754;2022-11-20T04:27:30;5.50;99.90
40600;DHT22;26309;50.924;4.754;2022-11-20T04:29:56;5.50;99.90
40600;DHT22;26309;50.924;4.754;2022-11-20T04:32:22;5.50;99.90
40600;DHT22;26309;50.924;4.754;2022-11-20T04:34:48;5.50;99.90
40600;DHT22;26309;50.924;4.754;2022-11-20T04:37:14;5.50;99.90
40600;DHT22;26309;50.924;4.754;2022-11-20T04:39:39;5.50;99.90
40600;DHT22;26309;50.924;4.754;2022-11-20T04:42:05;5.60;99.90
40600;DHT22;26309;50.924;4.754;2022-11-20T04:44:49;5.60;99.90
40600;DHT22;26309;50.924;4.754;2022-11-20T04:47:15;5.60;99.90
40600;DHT22;26309;50.924;4.754;2022-11-20T04:49:41;5.60;99.90
40600;DHT22;26309;50.924;4.754;2022-11-20T04:52:07;5.60;99.90
40600;DHT22;26309;50.924;4.754;2022-11-20T04:54:32;5.50;99.90
40600;DHT22;26309;50.924;4.754;2022-11-20T04:56:58;5.50;99.90
40600;DHT22;26309;50.924;4.754;2022-11-20T04:59:24;5.40;99.90
40600;DHT22;26309;50.924;4.754;2022-11-20T05:01:50;5.30;99.90
40600;DHT22;26309;50.924;4.754;2022-11-20T05:04:16;5.30;99.90
40600;DHT22;26309;50.924;4.754;2022-11-20T05:06:41;5.50;99.90
40600;DHT22;26309;50.924;4.754;2022-11-20T05:09:07;5.40;99.90
40600;DHT22;26309;50.924;4.754;2022-11-20T05:11:33;5.30;99.90
40600;DHT22;26309;50.924;4.754;2022-11-20T05:13:59;5.10;99.90
40600;DHT22;26309;50.924;4.754;2022-11-20T05:16:25;5.20;99.90
40600;DHT22;26309;50.924;4.754;2022-11-20T05:18:53;5.00;99.90
40600;DHT22;26309;50.924;4.754;2022-11-20T05:21:20;4.90;99.90
40600;DHT22;26309;50.924;4.754;2022-11-20T05:23:46;4.90;99.90
40600;DHT22;26309;50.924;4.754;2022-11-20T05:26:20;5.00;99.90
40600;DHT22;26309;50.924;4.754;2022-11-20T05:28:47;5.00;99.90
40600;DHT22;26309;50.924;4.754;2022-11-20T05:31:17;5.00;99.90
40600;DHT22;26309;50.924;4.754;2022-11-20T05:33:44;5.00;99.90
40600;DHT22;26309;50.924;4.754;2022-11-20T05:36:14;5.00;99.90
40600;DHT22;26309;50.924;4.754;2022-11-20T05:38:41;4.90;99.90
40600;DHT22;26309;50.924;4.754;2022-11-20T05:41:12;4.90;99.90
40600;DHT22;26309;50.924;4.754;2022-11-20T05:43:39;5.00;99.90
40600;DHT22;26309;50.924;4.754;2022-11-20T05:46:07;5.10;99.90
40600;DHT22;26309;50.924;4.754;2022-11-20T05:48:36;5.10;99.90
40600;DHT22;26309;50.924;4.754;2022-11-20T05:51:04;5.10;99.90
40600;DHT22;26309;50.924;4.754;2022-11-20T05:53:30;5.10;99.90
40600;DHT22;26309;50.924;4.754;2022-11-20T05:56:02;5.20;99.90
40600;DHT22;26309;50.924;4.754;2022-11-20T05:58:28;5.20;99.90
40600;DHT22;26309;50.924;4.754;2022-11-20T06:00:54;5.30;99.90
40600;DHT22;26309;50.924;4.754;2022-11-20T06:03:28;5.30;99.90
40600;DHT22;26309;50.924;4.754;2022-11-20T06:05:54;5.30;99.90
40600;DHT22;26309;50.924;4.754;2022-11-20T06:08:20;5.30;99.90
40600;DHT22;26309;50.924;4.754;2022-11-20T06:10:46;5.30;99.90
40600;DHT22;26309;50.924;4.754;2022-11-20T06:13:12;5.20;99.90
40600;DHT22;26309;50.924;4.754;2022-11-20T06:15:39;5.20;99.90
40600;DHT22;26309;50.924;4.754;2022-11-20T06:18:05;5.20;99.90
40600;DHT22;26309;50.924;4.754;2022-11-20T06:20:30;5.10;99.90
40600;DHT22;26309;50.924;4.754;2022-11-20T06:22:56;5.20;99.90
40600;DHT22;26309;50.924;4.754;2022-11-20T06:25:22;5.20;99.90
40600;DHT22;26309;50.924;4.754;2022-11-20T06:27:48;5.10;99.90
40600;DHT22;26309;50.924;4.754;2022-11-20T06:30:14;5.20;99.90
40600;DHT22;26309;50.924;4.754;2022-11-20T06:32:40;5.20;99.90
40600;DHT22;26309;50.924;4.754;2022-11-20T06:35:06;5.30;99.90
40600;DHT22;26309;50.924;4.754;2022-11-20T06:37:32;5.30;99.90
40600;DHT22;26309;50.924;4.754;2022-11-20T06:39:58;5.30;99.90
40600;DHT22;26309;50.924;4.754;2022-11-20T06:42:23;5.20;99.90
40600;DHT22;26309;50.924;4.754;2022-11-20T06:44:49;5.30;99.90
40600;DHT22;26309;50.924;4.754;2022-11-20T06:47:15;5.30;99.90
40600;DHT22;26309;50.924;4.754;2022-11-20T06:49:40;5.30;99.90
40600;DHT22;26309;50.924;4.754;2022-11-20T06:52:06;5.30;99.90
40600;DHT22;26309;50.924;4.754;2022-11-20T06:54:32;5.40;99.90
40600;DHT22;26309;50.924;4.754;2022-11-20T06:56:58;5.40;99.90
40600;DHT22;26309;50.924;4.754;2022-11-20T06:59:24;5.50;99.90
40600;DHT22;26309;50.924;4.754;2022-11-20T07:01:49;5.50;99.90
40600;DHT22;26309;50.924;4.754;2022-11-20T07:04:16;5.60;99.90
40600;DHT22;26309;50.924;4.754;2022-11-20T07:06:42;5.60;99.90
40600;DHT22;26309;50.924;4.754;2022-11-20T07:09:08;5.60;99.90
40600;DHT22;26309;50.924;4.754;2022-11-20T07:11:34;5.60;99.90
40600;DHT22;26309;50.924;4.754;2022-11-20T07:14:00;5.50;99.90
40600;DHT22;26309;50.924;4.754;2022-11-20T07:16:26;5.60;99.90
40600;DHT22;26309;50.924;4.754;2022-11-20T07:18:52;5.70;99.90
40600;DHT22;26309;50.924;4.754;2022-11-20T07:21:17;5.80;99.90
40600;DHT22;26309;50.924;4.754;2022-11-20T07:23:43;5.80;99.90
40600;DHT22;26309;50.924;4.754;2022-11-20T07:26:10;5.80;99.90
40600;DHT22;26309;50.924;4.754;2022-11-20T07:28:37;5.80;99.90
40600;DHT22;26309;50.924;4.754;2022-11-20T07:31:06;5.90;99.90
40600;DHT22;26309;50.924;4.754;2022-11-20T07:33:32;6.00;99.90
40600;DHT22;26309;50.924;4.754;2022-11-20T07:35:59;6.00;99.90
40600;DHT22;26309;50.924;4.754;2022-11-20T07:38:25;6.00;99.90
40600;DHT22;26309;50.924;4.754;2022-11-20T07:40:58;6.00;99.90
40600;DHT22;26309;50.924;4.754;2022-11-20T07:43:27;6.00;99.90
40600;DHT22;26309;50.924;4.754;2022-11-20T07:45:57;6.00;99.90
40600;DHT22;26309;50.924;4.754;2022-11-20T07:48:24;5.90;99.90
40600;DHT22;26309;50.924;4.754;2022-11-20T07:50:52;6.00;99.90
40600;DHT22;26309;50.924;4.754;2022-11-20T07:53:18;6.10;99.90
40600;DHT22;26309;50.924;4.754;2022-11-20T07:55:46;6.30;99.90
40600;DHT22;26309;50.924;4.754;2022-11-20T07:58:12;6.30;99.90
40600;DHT22;26309;50.924;4.754;2022-11-20T08:00:39;6.20;99.90
40600;DHT22;26309;50.924;4.754;2022-11-20T08:03:06;6.20;99.90
40600;DHT22;26309;50.924;4.754;2022-11-20T08:05:32;6.20;99.90
40600;DHT22;26309;50.924;4.754;2022-11-20T08:07:58;6.40;99.90
40600;DHT22;26309;50.924;4.754;2022-11-20T08:10:24;6.50;99.90
40600;DHT22;26309;50.924;4.754;2022-11-20T08:12:51;6.60;99.90
40600;DHT22;26309;50.924;4.754;2022-11-20T08:15:38;6.60;99.90
40600;DHT22;26309;50.924;4.754;2022-11-20T08:18:11;6.50;99.90
40600;DHT22;26309;50.924;4.754;2022-11-20T08:20:38;6.50;99.90
40600;DHT22;26309;50.924;4.754;2022-11-20T08:23:05;6.40;99.90
40600;DHT22;26309;50.924;4.754;2022-11-20T08:25:32;6.50;99.90
40600;DHT22;26309;50.924;4.754;2022-11-20T08:28:00;6.60;99.90
40600;DHT22;26309;50.924;4.754;2022-11-20T08:30:26;6.60;99.90
40600;DHT22;26309;50.924;4.754;2022-11-20T08:32:53;6.80;99.90
40600;DHT22;26309;50.924;4.754;2022-11-20T08:35:19;6.80;99.90
40600;DHT22;26309;50.924;4.754;2022-11-20T08:37:48;6.80;99.90
40600;DHT22;26309;50.924;4.754;2022-11-20T08:40:14;6.90;99.90
40600;DHT22;26309;50.924;4.754;2022-11-20T08:42:50;7.00;99.90
40600;DHT22;26309;50.924;4.754;2022-11-20T08:45:17;7.00;99.90
40600;DHT22;26309;50.924;4.754;2022-11-20T08:47:44;7.00;99.90
40600;DHT22;26309;50.924;4.754;2022-11-20T08:50:11;7.00;99.90
40600;DHT22;26309;50.924;4.754;2022-11-20T08:52:37;6.90;99.90
40600;DHT22;26309;50.924;4.754;2022-11-20T08:55:04;7.00;99.90
40600;DHT22;26309;50.924;4.754;2022-11-20T08:57:35;6.90;99.90
40600;DHT22;26309;50.924;4.754;2022-11-20T09:00:01;6.80;99.90
40600;DHT22;26309;50.924;4.754;2022-11-20T09:02:27;6.90;99.90
40600;DHT22;26309;50.924;4.754;2022-11-20T09:04:52;7.00;99.90
40600;DHT22;26309;50.924;4.754;2022-11-20T09:07:22;7.10;99.90
40600;DHT22;26309;50.924;4.754;2022-11-20T09:09:48;7.00;99.90
40600;DHT22;26309;50.924;4.754;2022-11-20T09:12:14;7.10;99.90
40600;DHT22;26309;50.924;4.754;2022-11-20T09:14:39;7.10;99.90
40600;DHT22;26309;50.924;4.754;2022-11-20T09:17:05;7.10;99.90
40600;DHT22;26309;50.924;4.754;2022-11-20T09:19:33;7.20;99.90
40600;DHT22;26309;50.924;4.754;2022-11-20T09:21:59;7.30;99.90
40600;DHT22;26309;50.924;4.754;2022-11-20T09:24:26;7.40;99.90
40600;DHT22;26309;50.924;4.754;2022-11-20T09:26:52;7.50;99.90
40600;DHT22;26309;50.924;4.754;2022-11-20T09:29:17;7.60;99.90
40600;DHT22;26309;50.924;4.754;2022-11-20T09:31:44;7.70;99.90
40600;DHT22;26309;50.924;4.754;2022-11-20T09:34:10;7.80;99.90
40600;DHT22;26309;50.924;4.754;2022-11-20T09:36:36;7.80;99.90
40600;DHT22;26309;50.924;4.754;2022-11-20T09:39:02;8.00;99.90
40600;DHT22;26309;50.924;4.754;2022-11-20T09:47:42;8.20;99.90
40600;DHT22;26309;50.924;4.754;2022-11-20T09:53:12;8.40;99.90
40600;DHT22;26309;50.924;4.754;2022-11-20T09:55:39;8.50;99.90
40600;DHT22;26309;50.924;4.754;2022-11-20T09:58:07;8.50;99.90
40600;DHT22;26309;50.924;4.754;2022-11-20T10:00:38;8.60;99.90
40600;DHT22;26309;50.924;4.754;2022-11-20T10:03:18;8.60;99.90
40600;DHT22;26309;50.924;4.754;2022-11-20T10:05:50;8.50;99.90
40600;DHT22;26309;50.924;4.754;2022-11-20T10:11:12;8.60;99.90
40600;DHT22;26309;50.924;4.754;2022-11-20T10:19:51;8.90;99.90
40600;DHT22;26309;50.924;4.754;2022-11-20T10:22:28;9.00;99.90
40600;DHT22;26309;50.924;4.754;2022-11-20T10:25:18;9.00;99.90
40600;DHT22;26309;50.924;4.754;2022-11-20T10:30:20;9.00;99.90
40600;DHT22;26309;50.924;4.754;2022-11-20T10:32:50;9.10;99.90
40600;DHT22;26309;50.924;4.754;2022-11-20T10:35:22;9.20;99.90
40600;DHT22;26309;50.924;4.754;2022-11-20T10:37:54;9.40;99.90
40600;DHT22;26309;50.924;4.754;2022-11-20T10:40:23;9.40;99.90
40600;DHT22;26309;50.924;4.754;2022-11-20T10:42:57;9.50;99.90
40600;DHT22;26309;50.924;4.754;2022-11-20T10:48:28;9.50;99.90
40600;DHT22;26309;50.924;4.754;2022-11-20T10:56:55;9.70;99.90
40600;DHT22;26309;50.924;4.754;2022-11-20T11:04:52;10.00;99.90
40600;DHT22;26309;50.924;4.754;2022-11-20T11:07:35;10.20;99.90
40600;DHT22;26309;50.924;4.754;2022-11-20T11:12:47;10.30;99.90
40600;DHT22;26309;50.924;4.754;2022-11-20T11:15:38;10.30;99.90
40600;DHT22;26309;50.924;4.754;2022-11-20T11:18:08;10.50;99.90
40600;DHT22;26309;50.924;4.754;2022-11-20T11:20:34;10.70;99.90
40600;DHT22;26309;50.924;4.754;2022-11-20T11:23:01;10.80;99.90
40600;DHT22;26309;50.924;4.754;2022-11-20T11:25:31;10.70;99.90
40600;DHT22;26309;50.924;4.754;2022-11-20T11:28:22;10.60;99.90
40600;DHT22;26309;50.924;4.754;2022-11-20T11:30:51;10.30;99.90
40600;DHT22;26309;50.924;4.754;2022-11-20T11:33:31;10.20;99.90
40600;DHT22;26309;50.924;4.754;2022-11-20T11:36:04;10.30;99.90
40600;DHT22;26309;50.924;4.754;2022-11-20T11:38:39;10.20;99.90
40600;DHT22;26309;50.924;4.754;2022-11-20T11:41:14;10.20;99.90
40600;DHT22;26309;50.924;4.754;2022-11-20T11:43:56;10.40;99.90
40600;DHT22;26309;50.924;4.754;2022-11-20T11:46:52;10.50;99.90
40600;DHT22;26309;50.924;4.754;2022-11-20T11:49:19;10.40;99.90
40600;DHT22;26309;50.924;4.754;2022-11-20T11:52:15;10.40;99.90
40600;DHT22;26309;50.924;4.754;2022-11-20T11:54:51;10.40;99.90
40600;DHT22;26309;50.924;4.754;2022-11-20T12:00:25;10.50;99.90
40600;DHT22;26309;50.924;4.754;2022-11-20T12:03:14;10.50;99.90
40600;DHT22;26309;50.924;4.754;2022-11-20T12:05:49;10.50;99.90
40600;DHT22;26309;50.924;4.754;2022-11-20T12:08:32;10.60;99.90
40600;DHT22;26309;50.924;4.754;2022-11-20T12:14:19;10.50;99.90
40600;DHT22;26309;50.924;4.754;2022-11-20T12:16:50;10.50;99.90
40600;DHT22;26309;50.924;4.754;2022-11-20T12:19:18;10.40;99.90
40600;DHT22;26309;50.924;4.754;2022-11-20T12:30:22;10.40;99.90
40600;DHT22;26309;50.924;4.754;2022-11-20T12:41:15;10.00;99.90
40600;DHT22;26309;50.924;4.754;2022-11-20T12:53:11;9.60;99.90
40600;DHT22;26309;50.924;4.754;2022-11-20T12:55:59;9.50;99.90
40600;DHT22;26309;50.924;4.754;2022-11-20T13:07:02;9.30;99.90
40600;DHT22;26309;50.924;4.754;2022-11-20T13:09:29;9.40;99.90
40600;DHT22;26309;50.924;4.754;2022-11-20T13:15:02;9.40;99.90
40600;DHT22;26309;50.924;4.754;2022-11-20T13:20:06;9.30;99.90
40600;DHT22;26309;50.924;4.754;2022-11-20T13:22:45;9.20;99.90
40600;DHT22;26309;50.924;4.754;2022-11-20T13:25:30;9.20;99.90
40600;DHT22;26309;50.924;4.754;2022-11-20T13:28:01;9.30;99.90
40600;DHT22;26309;50.924;4.754;2022-11-20T13:30:29;9.40;99.90
40600;DHT22;26309;50.924;4.754;2022-11-20T13:35:56;9.30;99.90
40600;DHT22;26309;50.924;4.754;2022-11-20T13:38:22;9.50;99.90
40600;DHT22;26309;50.924;4.754;2022-11-20T13:40:59;9.60;99.90
40600;DHT22;26309;50.924;4.754;2022-11-20T13:43:48;9.70;99.90
40600;DHT22;26309;50.924;4.754;2022-11-20T13:46:14;9.60;99.90
40600;DHT22;26309;50.924;4.754;2022-11-20T13:48:45;9.50;99.90
40600;DHT22;26309;50.924;4.754;2022-11-20T13:51:33;9.50;99.90
40600;DHT22;26309;50.924;4.754;2022-11-20T14:02:02;9.10;99.90
40600;DHT22;26309;50.924;4.754;2022-11-20T14:04:32;9.10;99.90
40600;DHT22;26309;50.924;4.754;2022-11-20T14:06:59;9.10;99.90
40600;DHT22;26309;50.924;4.754;2022-11-20T14:09:30;9.10;99.90
40600;DHT22;26309;50.924;4.754;2022-11-20T14:11:57;9.10;99.90
40600;DHT22;26309;50.924;4.754;2022-11-20T14:14:25;8.90;99.90
40600;DHT22;26309;50.924;4.754;2022-11-20T14:16:52;8.90;99.90
40600;DHT22;26309;50.924;4.754;2022-11-20T14:22:16;8.90;99.90
40600;DHT22;26309;50.924;4.754;2022-11-20T14:24:39;8.80;99.90
40600;DHT22;26309;50.924;4.754;2022-11-20T14:27:20;8.90;99.90
40600;DHT22;26309;50.924;4.754;2022-11-20T14:29:49;9.00;99.90
40600;DHT22;26309;50.924;4.754;2022-11-20T14:32:17;9.20;99.90
40600;DHT22;26309;50.924;4.754;2022-11-20T14:34:47;9.20;99.90
40600;DHT22;26309;50.924;4.754;2022-11-20T14:37:24;9.20;99.90
40600;DHT22;26309;50.924;4.754;2022-11-20T14:39:55;9.10;99.90
40600;DHT22;26309;50.924;4.754;2022-11-20T14:42:26;9.00;99.90
40600;DHT22;26309;50.924;4.754;2022-11-20T14:44:55;8.90;99.90
40600;DHT22;26309;50.924;4.754;2022-11-20T14:47:27;8.90;99.90
40600;DHT22;26309;50.924;4.754;2022-11-20T14:49:55;8.90;99.90
40600;DHT22;26309;50.924;4.754;2022-11-20T14:52:27;9.00;99.90
40600;DHT22;26309;50.924;4.754;2022-11-20T14:54:57;9.10;99.90
40600;DHT22;26309;50.924;4.754;2022-11-20T14:57:30;9.10;99.90
40600;DHT22;26309;50.924;4.754;2022-11-20T15:00:23;9.00;99.90
40600;DHT22;26309;50.924;4.754;2022-11-20T15:02:51;8.90;99.90
40600;DHT22;26309;50.924;4.754;2022-11-20T15:05:19;8.90;99.90
40600;DHT22;26309;50.924;4.754;2022-11-20T15:08:03;9.00;99.90
40600;DHT22;26309;50.924;4.754;2022-11-20T15:10:30;9.00;99.90
40600;DHT22;26309;50.924;4.754;2022-11-20T15:13:35;9.00;99.90
40600;DHT22;26309;50.924;4.754;2022-11-20T15:16:02;9.00;99.90
40600;DHT22;26309;50.924;4.754;2022-11-20T15:18:40;9.10;99.90
40600;DHT22;26309;50.924;4.754;2022-11-20T15:21:14;9.10;99.90
40600;DHT22;26309;50.924;4.754;2022-11-20T15:23:41;8.90;99.90
40600;DHT22;26309;50.924;4.754;2022-11-20T15:26:08;8.90;99.90
40600;DHT22;26309;50.924;4.754;2022-11-20T15:28:43;8.90;99.90
40600;DHT22;26309;50.924;4.754;2022-11-20T15:31:14;8.90;99.90
40600;DHT22;26309;50.924;4.754;2022-11-20T15:33:40;8.90;99.90
40600;DHT22;26309;50.924;4.754;2022-11-20T15:36:06;8.80;99.90
40600;DHT22;26309;50.924;4.754;2022-11-20T15:38:32;8.80;99.90
40600;DHT22;26309;50.924;4.754;2022-11-20T15:40:58;8.90;99.90
40600;DHT22;26309;50.924;4.754;2022-11-20T15:43:23;8.90;99.90
40600;DHT22;26309;50.924;4.754;2022-11-20T15:45:52;8.80;99.90
40600;DHT22;26309;50.924;4.754;2022-11-20T15:48:22;8.80;99.90
40600;DHT22;26309;50.924;4.754;2022-11-20T15:53:37;9.00;99.90
40600;DHT22;26309;50.924;4.754;2022-11-20T15:56:03;9.00;99.90
40600;DHT22;26309;50.924;4.754;2022-11-20T15:58:29;9.10;99.90
40600;DHT22;26309;50.924;4.754;2022-11-20T16:00:55;9.20;99.90
40600;DHT22;26309;50.924;4.754;2022-11-20T16:03:21;9.10;99.90
40600;DHT22;26309;50.924;4.754;2022-11-20T16:05:48;9.10;99.90
40600;DHT22;26309;50.924;4.754;2022-11-20T16:08:14;9.20;99.90
40600;DHT22;26309;50.924;4.754;2022-11-20T16:10:40;9.20;99.90
40600;DHT22;26309;50.924;4.754;2022-11-20T16:13:16;9.20;99.90
40600;DHT22;26309;50.924;4.754;2022-11-20T16:16:06;9.20;99.90
40600;DHT22;26309;50.924;4.754;2022-11-20T16:18:34;9.20;99.90
40600;DHT22;26309;50.924;4.754;2022-11-20T16:21:01;9.10;99.90
40600;DHT22;26309;50.924;4.754;2022-11-20T16:23:26;8.90;99.90
40600;DHT22;26309;50.924;4.754;2022-11-20T16:25:52;8.80;99.90
40600;DHT22;26309;50.924;4.754;2022-11-20T16:28:18;8.80;99.90
40600;DHT22;26309;50.924;4.754;2022-11-20T16:30:45;8.90;99.90
40600;DHT22;26309;50.924;4.754;2022-11-20T16:33:13;8.90;99.90
40600;DHT22;26309;50.924;4.754;2022-11-20T16:35:39;9.00;99.90
40600;DHT22;26309;50.924;4.754;2022-11-20T16:38:05;9.00;99.90
40600;DHT22;26309;50.924;4.754;2022-11-20T16:40:32;9.10;99.90
40600;DHT22;26309;50.924;4.754;2022-11-20T16:43:07;9.10;99.90
40600;DHT22;26309;50.924;4.754;2022-11-20T16:45:34;9.10;99.90
40600;DHT22;26309;50.924;4.754;2022-11-20T16:48:00;9.10;99.90
40600;DHT22;26309;50.924;4.754;2022-11-20T16:50:26;9.00;99.90
40600;DHT22;26309;50.924;4.754;2022-11-20T16:52:51;8.90;99.90
40600;DHT22;26309;50.924;4.754;2022-11-20T16:55:17;9.00;99.90
40600;DHT22;26309;50.924;4.754;2022-11-20T16:57:43;9.00;99.90
40600;DHT22;26309;50.924;4.754;2022-11-20T17:00:09;8.90;99.90
40600;DHT22;26309;50.924;4.754;2022-11-20T17:02:35;9.10;99.90
40600;DHT22;26309;50.924;4.754;2022-11-20T17:05:02;9.20;99.90
40600;DHT22;26309;50.924;4.754;2022-11-20T17:07:28;9.30;99.90
40600;DHT22;26309;50.924;4.754;2022-11-20T17:09:54;9.20;99.90
40600;DHT22;26309;50.924;4.754;2022-11-20T17:12:20;9.30;99.90
40600;DHT22;26309;50.924;4.754;2022-11-20T17:14:46;9.40;99.90
40600;DHT22;26309;50.924;4.754;2022-11-20T17:17:12;9.40;99.90
40600;DHT22;26309;50.924;4.754;2022-11-20T17:19:37;9.40;99.90
40600;DHT22;26309;50.924;4.754;2022-11-20T17:22:03;9.30;99.90
40600;DHT22;26309;50.924;4.754;2022-11-20T17:24:29;9.30;99.90
40600;DHT22;26309;50.924;4.754;2022-11-20T17:26:55;9.30;99.90
40600;DHT22;26309;50.924;4.754;2022-11-20T17:29:20;9.20;99.90
40600;DHT22;26309;50.924;4.754;2022-11-20T17:31:49;9.10;99.90
40600;DHT22;26309;50.924;4.754;2022-11-20T17:34:15;9.20;99.90
40600;DHT22;26309;50.924;4.754;2022-11-20T17:36:42;9.10;99.90
40600;DHT22;26309;50.924;4.754;2022-11-20T17:39:13;9.10;99.90
40600;DHT22;26309;50.924;4.754;2022-11-20T17:41:39;8.90;99.90
40600;DHT22;26309;50.924;4.754;2022-11-20T17:44:05;8.80;99.90
40600;DHT22;26309;50.924;4.754;2022-11-20T17:46:32;8.80;99.90
40600;DHT22;26309;50.924;4.754;2022-11-20T17:48:58;8.80;99.90